createdAt,value
2018-09-23T00:00:51.565Z,9.80
2018-09-23T00:03:19.980Z,10.83
2018-09-23T00:05:48.230Z,9.53
2018-09-23T00:08:16.464Z,8.60
2018-09-23T00:10:44.661Z,7.10
2018-09-23T00:13:12.989Z,6.10
2018-09-23T00:15:41.330Z,8.20
2018-09-23T00:18:09.589Z,7.20
2018-09-23T00:20:37.837Z,7.03
2018-09-23T00:23:06.037Z,9.03
2018-09-23T00:25:34.257Z,8.10
2018-09-23T00:28:02.529Z,6.00
2018-09-23T00:30:30.725Z,7.83
2018-09-23T00:32:58.987Z,8.33
2018-09-23T00:35:27.257Z,6.97
2018-09-23T00:37:55.502Z,9.50
2018-09-23T00:40:23.762Z,7.37
2018-09-23T00:42:51.981Z,7.57
2018-09-23T00:45:20.202Z,8.10
2018-09-23T00:47:48.444Z,10.47
2018-09-23T00:50:16.702Z,7.97
2018-09-23T00:52:44.920Z,8.70
2018-09-23T00:55:13.117Z,10.90
2018-09-23T00:57:41.380Z,7.73
2018-09-23T01:00:09.616Z,10.97
2018-09-23T01:02:37.930Z,11.17
2018-09-23T01:05:06.214Z,8.53
2018-09-23T01:07:34.475Z,9.73
2018-09-23T01:10:02.702Z,7.83
2018-09-23T01:12:30.901Z,9.00
2018-09-23T01:14:59.133Z,8.97
2018-09-23T01:17:27.323Z,7.50
2018-09-23T01:19:55.545Z,9.93
2018-09-23T01:22:23.867Z,9.67
2018-09-23T01:24:52.070Z,9.67
2018-09-23T01:27:20.294Z,10.13
2018-09-23T01:29:48.571Z,12.47
2018-09-23T01:32:16.802Z,10.47
2018-09-23T01:34:45.063Z,12.23
2018-09-23T01:37:13.283Z,10.97
2018-09-23T01:39:41.497Z,8.77
2018-09-23T01:42:09.779Z,11.23
2018-09-23T01:44:38.033Z,9.40
2018-09-23T01:47:06.283Z,12.57
2018-09-23T01:49:34.586Z,12.43
2018-09-23T01:52:02.885Z,10.27
2018-09-23T01:54:31.142Z,10.20
2018-09-23T01:56:59.386Z,13.33
2018-09-23T01:59:27.637Z,9.77
2018-09-23T02:01:55.900Z,9.80
2018-09-23T02:04:24.260Z,10.30
2018-09-23T02:06:52.492Z,9.43
2018-09-23T02:09:20.753Z,11.13
2018-09-23T02:11:48.999Z,9.93
2018-09-23T02:14:17.203Z,9.83
2018-09-23T02:16:45.430Z,12.03
2018-09-23T02:19:13.617Z,12.33
2018-09-23T02:21:41.861Z,11.70
2018-09-23T02:24:10.067Z,15.07
2018-09-23T02:26:38.271Z,13.70
2018-09-23T02:29:06.539Z,13.07
2018-09-23T02:31:34.741Z,11.53
2018-09-23T02:34:02.948Z,11.87
2018-09-23T02:36:31.189Z,13.37
2018-09-23T02:38:59.815Z,13.00
2018-09-23T02:41:28.121Z,14.77
2018-09-23T02:43:56.445Z,13.07
2018-09-23T02:46:24.696Z,12.73
2018-09-23T02:48:52.923Z,16.30
2018-09-23T02:51:21.236Z,14.50
2018-09-23T02:53:49.443Z,15.93
2018-09-23T02:56:17.632Z,14.10
2018-09-23T02:58:45.863Z,15.53
2018-09-23T03:01:14.073Z,14.00
2018-09-23T03:03:42.329Z,14.63
2018-09-23T03:06:10.529Z,16.57
2018-09-23T03:08:38.776Z,14.47
2018-09-23T03:11:07.008Z,14.73
2018-09-23T03:13:35.257Z,14.37
2018-09-23T03:16:03.498Z,16.70
2018-09-23T03:18:31.766Z,15.13
2018-09-23T03:20:59.960Z,15.00
2018-09-23T03:23:28.207Z,16.67
2018-09-23T03:25:56.477Z,17.30
2018-09-23T03:28:24.739Z,17.80
2018-09-23T03:30:53.028Z,18.37
2018-09-23T03:33:21.291Z,18.10
2018-09-23T03:35:49.509Z,16.00
2018-09-23T03:38:17.735Z,18.43
2018-09-23T03:40:45.937Z,17.90
2018-09-23T03:43:14.127Z,20.37
2018-09-23T03:45:42.365Z,17.30
2018-09-23T03:48:10.598Z,19.07
2018-09-23T03:50:38.821Z,21.47
2018-09-23T03:53:07.096Z,19.63
2018-09-23T03:55:35.315Z,19.67
2018-09-23T03:58:03.619Z,19.37
2018-09-23T04:00:31.813Z,21.17
2018-09-23T04:03:00.000Z,20.97
2018-09-23T04:05:28.270Z,20.47
2018-09-23T04:07:56.481Z,19.07
2018-09-23T04:10:24.706Z,21.73
2018-09-23T04:12:53.545Z,18.30
2018-09-23T04:15:21.798Z,20.70
2018-09-23T04:17:50.070Z,20.87
2018-09-23T04:20:18.338Z,21.03
2018-09-23T04:22:50.236Z,19.10
2018-09-23T04:25:19.594Z,25.73
2018-09-23T04:27:48.134Z,23.57
2018-09-23T04:30:17.009Z,21.87
2018-09-23T04:32:45.279Z,25.67
2018-09-23T04:35:13.545Z,21.53
2018-09-23T04:37:41.792Z,23.77
2018-09-23T04:40:10.042Z,23.87
2018-09-23T04:42:38.262Z,24.60
2018-09-23T04:45:06.640Z,21.57
2018-09-23T04:47:34.857Z,23.80
2018-09-23T04:50:03.138Z,22.17
2018-09-23T04:52:32.434Z,21.43
2018-09-23T04:55:00.725Z,21.97
2018-09-23T04:57:29.059Z,20.43
2018-09-23T04:59:57.285Z,20.67
2018-09-23T05:02:25.528Z,19.60
2018-09-23T05:04:53.814Z,22.80
2018-09-23T05:07:22.006Z,21.53
2018-09-23T05:09:50.238Z,21.70
2018-09-23T05:12:18.551Z,23.13
2018-09-23T05:14:46.794Z,23.97
2018-09-23T05:17:15.049Z,22.57
2018-09-23T05:19:43.248Z,21.13
2018-09-23T05:22:11.512Z,20.17
2018-09-23T05:24:39.675Z,22.47
2018-09-23T05:27:07.954Z,20.87
2018-09-23T05:29:36.157Z,19.53
2018-09-23T05:32:04.333Z,19.50
2018-09-23T05:34:32.541Z,19.70
2018-09-23T05:37:00.766Z,22.03
2018-09-23T05:39:28.962Z,21.67
2018-09-23T05:41:57.174Z,19.13
2018-09-23T05:44:25.353Z,18.53
2018-09-23T05:46:53.541Z,18.77
2018-09-23T05:49:21.724Z,18.43
2018-09-23T05:51:49.934Z,18.27
2018-09-23T05:54:18.127Z,18.70
2018-09-23T05:56:46.344Z,18.73
2018-09-23T05:59:14.549Z,17.77
2018-09-23T06:01:42.733Z,17.63
2018-09-23T06:04:10.935Z,15.93
2018-09-23T06:06:39.217Z,18.80
2018-09-23T06:09:07.604Z,16.17
2018-09-23T06:11:35.940Z,16.47
2018-09-23T06:14:04.141Z,17.50
2018-09-23T06:16:32.321Z,17.23
2018-09-23T06:19:00.718Z,14.70
2018-09-23T06:21:28.900Z,15.77
2018-09-23T06:23:57.061Z,16.03
2018-09-23T06:26:25.241Z,15.77
2018-09-23T06:28:53.485Z,14.07
2018-09-23T06:31:21.742Z,14.77
2018-09-23T06:33:49.934Z,14.47
2018-09-23T06:36:18.141Z,13.13
2018-09-23T06:38:46.364Z,12.50
2018-09-23T06:41:14.564Z,12.97
2018-09-23T06:43:42.805Z,12.97
2018-09-23T06:46:11.041Z,11.30
2018-09-23T06:48:39.270Z,12.40
2018-09-23T06:51:07.539Z,12.87
2018-09-23T06:53:35.999Z,11.60
2018-09-23T06:56:04.173Z,11.47
2018-09-23T06:58:32.359Z,11.57
2018-09-23T07:01:01.102Z,11.10
2018-09-23T07:03:29.304Z,12.53
2018-09-23T07:05:57.492Z,10.80
2018-09-23T07:08:25.706Z,12.27
2018-09-23T07:10:53.920Z,12.40
2018-09-23T07:13:22.110Z,13.93
2018-09-23T07:15:50.448Z,13.20
2018-09-23T07:18:18.651Z,11.93
2018-09-23T07:20:46.932Z,13.50
2018-09-23T07:23:15.152Z,11.47
2018-09-23T07:25:43.356Z,12.87
2018-09-23T07:28:11.546Z,12.53
2018-09-23T07:30:39.803Z,13.13
2018-09-23T07:33:07.955Z,14.37
2018-09-23T07:35:36.161Z,13.07
2018-09-23T07:38:04.343Z,12.47
2018-09-23T07:40:32.556Z,14.47
2018-09-23T07:43:00.766Z,13.33
2018-09-23T07:45:28.972Z,14.43
2018-09-23T07:47:57.195Z,12.17
2018-09-23T07:50:25.357Z,12.00
2018-09-23T07:52:53.568Z,11.83
2018-09-23T07:55:21.845Z,12.97
2018-09-23T07:57:50.117Z,10.93
2018-09-23T08:00:18.341Z,10.67
2018-09-23T08:02:46.600Z,9.73
2018-09-23T08:05:14.884Z,11.07
2018-09-23T08:07:43.120Z,10.00
2018-09-23T08:10:11.336Z,8.60
2018-09-23T08:12:39.609Z,10.03
2018-09-23T08:15:08.000Z,8.63
2018-09-23T08:17:36.123Z,8.80
2018-09-23T08:20:04.391Z,7.93
2018-09-23T08:22:32.584Z,7.57
2018-09-23T08:25:00.815Z,7.53
2018-09-23T08:27:29.024Z,7.40
2018-09-23T08:29:57.420Z,8.57
2018-09-23T08:32:25.592Z,6.60
2018-09-23T08:34:53.776Z,7.27
2018-09-23T08:37:21.990Z,7.03
2018-09-23T08:39:50.237Z,6.23
2018-09-23T08:42:18.525Z,5.60
2018-09-23T08:44:46.708Z,5.57
2018-09-23T08:47:14.931Z,8.20
2018-09-23T08:49:43.124Z,5.60
2018-09-23T08:52:11.409Z,5.53
2018-09-23T08:54:39.569Z,5.00
2018-09-23T08:57:07.760Z,5.77
2018-09-23T08:59:36.065Z,5.97
2018-09-23T09:02:04.268Z,5.70
2018-09-23T09:04:32.522Z,5.40
2018-09-23T09:07:00.722Z,5.33
2018-09-23T09:09:28.917Z,4.80
2018-09-23T09:11:57.124Z,5.33
2018-09-23T09:14:25.289Z,5.03
2018-09-23T09:16:53.536Z,6.37
2018-09-23T09:19:21.736Z,5.37
2018-09-23T09:21:49.945Z,5.37
2018-09-23T09:24:18.130Z,6.23
2018-09-23T09:26:46.331Z,4.90
2018-09-23T09:29:14.496Z,5.17
2018-09-23T09:31:42.917Z,6.23
2018-09-23T09:34:11.169Z,5.13
2018-09-23T09:36:39.345Z,6.07
2018-09-23T09:39:08.889Z,5.70
2018-09-23T09:41:37.160Z,5.37
2018-09-23T09:44:05.477Z,5.53
2018-09-23T09:46:33.634Z,5.23
2018-09-23T09:49:01.836Z,5.13
2018-09-23T09:51:30.003Z,5.97
2018-09-23T09:53:58.426Z,5.63
2018-09-23T09:56:26.617Z,6.47
2018-09-23T09:58:54.821Z,6.23
2018-09-23T10:01:23.064Z,4.93
2018-09-23T10:03:51.885Z,5.00
2018-09-23T10:06:20.075Z,5.17
2018-09-23T10:08:48.249Z,4.50
2018-09-23T10:11:16.427Z,5.00
2018-09-23T10:13:44.594Z,5.10
2018-09-23T10:16:12.756Z,5.13
2018-09-23T10:18:40.965Z,5.10
2018-09-23T10:21:09.134Z,5.20
2018-09-23T10:23:37.478Z,4.73
2018-09-23T10:26:05.806Z,5.07
2018-09-23T10:28:34.055Z,4.40
2018-09-23T10:31:02.438Z,4.63
2018-09-23T10:33:30.553Z,3.93
2018-09-23T10:35:58.762Z,4.00
2018-09-23T10:38:26.925Z,3.90
2018-09-23T10:40:55.127Z,3.13
2018-09-23T10:43:23.354Z,3.60
2018-09-23T10:45:51.589Z,3.87
2018-09-23T10:48:19.777Z,3.70
2018-09-23T10:50:47.969Z,3.60
2018-09-23T10:53:16.136Z,4.37
2018-09-23T10:55:44.401Z,4.03
2018-09-23T10:58:12.501Z,3.50
2018-09-23T11:00:40.672Z,4.20
2018-09-23T11:03:09.020Z,4.33
2018-09-23T11:05:37.736Z,4.30
2018-09-23T11:08:06.024Z,6.03
2018-09-23T11:10:34.219Z,4.30
2018-09-23T11:13:02.516Z,4.60
2018-09-23T11:15:30.815Z,4.93
2018-09-23T11:17:58.993Z,4.93
2018-09-23T11:20:27.214Z,5.03
2018-09-23T11:22:55.428Z,4.80
2018-09-23T11:25:23.626Z,5.20
2018-09-23T11:27:51.821Z,4.83
2018-09-23T11:30:20.019Z,5.17
2018-09-23T11:32:48.214Z,5.63
2018-09-23T11:35:16.390Z,7.53
2018-09-23T11:37:44.571Z,5.63
2018-09-23T11:40:12.757Z,6.00
2018-09-23T11:42:40.921Z,7.67
2018-09-23T11:45:09.097Z,7.67
2018-09-23T11:47:37.280Z,9.13
2018-09-23T11:50:05.805Z,8.13
2018-09-23T11:52:34.004Z,7.83
2018-09-23T11:55:02.172Z,8.27
2018-09-23T11:57:30.346Z,7.67
2018-09-23T11:59:58.541Z,7.20
2018-09-23T12:02:26.960Z,5.63
2018-09-23T12:04:55.144Z,5.37
2018-09-23T12:07:23.341Z,5.90
2018-09-23T12:09:51.540Z,5.83
2018-09-23T12:12:19.724Z,5.27
2018-09-23T12:14:47.906Z,5.33
2018-09-23T12:17:16.093Z,5.97
2018-09-23T12:19:44.273Z,7.97
2018-09-23T12:22:12.455Z,5.73
2018-09-23T12:24:40.610Z,5.90
2018-09-23T12:27:08.868Z,5.50
2018-09-23T12:29:37.131Z,6.67
2018-09-23T12:32:05.330Z,10.53
2018-09-23T12:34:33.512Z,9.27
2018-09-23T12:37:01.697Z,9.87
2018-09-23T12:39:30.913Z,10.37
2018-09-23T12:41:59.745Z,10.30
2018-09-23T12:44:27.925Z,9.53
2018-09-23T12:46:56.545Z,11.37
2018-09-23T12:49:31.141Z,11.13
2018-09-23T12:51:59.349Z,13.13
2018-09-23T12:54:27.673Z,13.87
2018-09-23T12:56:55.853Z,9.67
2018-09-23T12:59:24.053Z,10.20
2018-09-23T13:01:52.252Z,11.87
2018-09-23T13:04:20.480Z,11.47
2018-09-23T13:06:48.659Z,10.00
2018-09-23T13:09:16.853Z,10.60
2018-09-23T13:11:45.047Z,10.80
2018-09-23T13:14:13.232Z,9.20
2018-09-23T13:16:41.413Z,9.43
2018-09-23T13:19:09.677Z,10.63
2018-09-23T13:21:37.892Z,9.37
2018-09-23T13:24:06.258Z,7.63
2018-09-23T13:26:34.453Z,7.60
2018-09-23T13:29:02.641Z,7.93
2018-09-23T13:31:30.802Z,7.97
2018-09-23T13:33:58.981Z,7.53
2018-09-23T13:36:27.181Z,8.63
2018-09-23T13:38:55.393Z,7.97
2018-09-23T13:41:23.604Z,9.17
2018-09-23T13:43:51.793Z,9.30
2018-09-23T13:46:20.011Z,7.60
2018-09-23T13:48:48.157Z,7.97
2018-09-23T13:51:16.337Z,8.13
2018-09-23T13:53:44.508Z,7.37
2018-09-23T13:56:12.816Z,7.67
2018-09-23T13:58:41.016Z,7.80
2018-09-23T14:01:09.250Z,8.20
2018-09-23T14:03:37.426Z,8.07
2018-09-23T14:06:05.597Z,8.83
2018-09-23T14:08:33.793Z,8.30
2018-09-23T14:11:01.985Z,8.13
2018-09-23T14:13:30.158Z,8.60
2018-09-23T14:15:58.353Z,8.63
2018-09-23T14:18:26.524Z,9.27
2018-09-23T14:20:54.767Z,9.37
2018-09-23T14:23:22.969Z,10.90
2018-09-23T14:25:51.153Z,11.03
2018-09-23T14:28:19.318Z,11.03
2018-09-23T14:30:47.524Z,10.87
2018-09-23T14:33:16.047Z,14.13
2018-09-23T14:35:44.469Z,10.20
2018-09-23T14:38:12.673Z,11.80
2018-09-23T14:40:40.916Z,12.23
2018-09-23T14:43:09.100Z,13.27
2018-09-23T14:45:37.319Z,13.03
2018-09-23T14:48:05.528Z,13.00
2018-09-23T14:50:33.708Z,14.97
2018-09-23T14:53:01.898Z,14.10
2018-09-23T14:55:30.081Z,17.50
2018-09-23T14:57:58.313Z,15.77
2018-09-23T15:00:26.536Z,11.97
2018-09-23T15:02:54.696Z,11.60
2018-09-23T15:05:22.921Z,13.67
2018-09-23T15:07:51.180Z,12.33
2018-09-23T15:10:19.421Z,12.07
2018-09-23T15:12:47.651Z,12.30
2018-09-23T15:15:15.877Z,12.87
2018-09-23T15:17:44.089Z,10.80
2018-09-23T15:20:12.328Z,10.97
2018-09-23T15:22:40.533Z,11.60
2018-09-23T15:25:08.741Z,14.63
2018-09-23T15:27:37.166Z,13.23
2018-09-23T15:30:05.401Z,14.50
2018-09-23T15:32:40.091Z,11.70
2018-09-23T15:35:08.765Z,12.00
2018-09-23T15:37:37.295Z,13.23
2018-09-23T15:40:05.562Z,12.37
2018-09-23T15:42:33.757Z,12.77
2018-09-23T15:45:01.957Z,12.77
2018-09-23T15:47:30.173Z,12.83
2018-09-23T15:49:58.392Z,12.70
2018-09-23T15:52:26.593Z,11.37
2018-09-23T15:54:54.773Z,12.77
2018-09-23T15:57:23.046Z,14.10
2018-09-23T15:59:51.197Z,12.53
2018-09-23T16:02:19.453Z,12.43
2018-09-23T16:04:47.636Z,13.17
2018-09-23T16:07:15.841Z,13.93
2018-09-23T16:09:44.097Z,13.17
2018-09-23T16:12:12.298Z,12.53
2018-09-23T16:14:40.621Z,13.90
2018-09-23T16:17:08.874Z,14.10
2018-09-23T16:19:37.068Z,13.13
2018-09-23T16:22:05.365Z,11.23
2018-09-23T16:24:33.628Z,9.23
2018-09-23T16:27:01.872Z,9.70
2018-09-23T16:29:30.116Z,9.37
2018-09-23T16:31:58.758Z,10.10
2018-09-23T16:34:26.939Z,7.93
2018-09-23T16:36:55.120Z,8.63
2018-09-23T16:39:23.405Z,7.53
2018-09-23T16:41:51.637Z,8.23
2018-09-23T16:44:19.838Z,7.23
2018-09-23T16:46:48.067Z,8.57
2018-09-23T16:49:16.283Z,8.63
2018-09-23T16:51:44.484Z,7.33
2018-09-23T16:54:12.745Z,5.20
2018-09-23T16:56:41.010Z,8.17
2018-09-23T16:59:09.372Z,7.13
2018-09-23T17:01:37.593Z,6.50
2018-09-23T17:04:05.845Z,5.20
2018-09-23T17:06:34.137Z,7.13
2018-09-23T17:09:03.023Z,6.00
2018-09-23T17:11:31.208Z,7.43
2018-09-23T17:13:59.483Z,6.53
2018-09-23T17:16:28.579Z,5.07
2018-09-23T17:18:56.849Z,7.17
2018-09-23T17:21:25.160Z,9.03
2018-09-23T17:23:53.581Z,8.17
2018-09-23T17:26:21.885Z,5.47
2018-09-23T17:28:50.106Z,5.67
2018-09-23T17:31:18.333Z,4.33
2018-09-23T17:33:46.716Z,6.40
2018-09-23T17:36:14.958Z,8.63
2018-09-23T17:38:43.190Z,5.30
2018-09-23T17:41:11.511Z,5.83
2018-09-23T17:43:39.729Z,5.70
2018-09-23T17:46:08.043Z,6.83
2018-09-23T17:48:36.340Z,6.87
2018-09-23T17:51:04.521Z,5.97
2018-09-23T17:53:32.807Z,8.47
2018-09-23T17:56:01.104Z,6.60
2018-09-23T17:58:29.385Z,8.07
2018-09-23T18:00:57.618Z,7.97
2018-09-23T18:03:25.896Z,7.43
2018-09-23T18:05:54.170Z,11.47
2018-09-23T18:08:22.402Z,12.00
2018-09-23T18:10:50.655Z,8.63
2018-09-23T18:13:18.933Z,8.37
2018-09-23T18:15:47.282Z,10.47
2018-09-23T18:18:15.523Z,12.97
2018-09-23T18:20:43.755Z,9.80
2018-09-23T18:23:12.039Z,10.77
2018-09-23T18:25:40.340Z,15.57
2018-09-23T18:28:08.572Z,9.50
2018-09-23T18:30:36.826Z,13.00
2018-09-23T18:33:05.113Z,13.30
2018-09-23T18:35:33.357Z,14.00
2018-09-23T18:38:01.711Z,15.43
2018-09-23T18:40:30.165Z,12.33
2018-09-23T18:42:58.362Z,15.30
2018-09-23T18:45:27.782Z,14.63
2018-09-23T18:47:56.772Z,14.17
2018-09-23T18:50:24.998Z,15.50
2018-09-23T18:52:58.546Z,18.10
2018-09-23T18:55:32.182Z,15.77
2018-09-23T18:58:00.942Z,18.17
2018-09-23T19:00:29.168Z,16.17
2018-09-23T19:02:57.446Z,15.70
2018-09-23T19:05:25.713Z,12.20
2018-09-23T19:07:53.992Z,15.53
2018-09-23T19:10:22.388Z,12.07
2018-09-23T19:12:55.900Z,10.80
2018-09-23T19:15:25.079Z,10.67
2018-09-23T19:17:53.218Z,8.57
2018-09-23T19:20:21.716Z,11.43
2018-09-23T19:22:55.268Z,5.93
2018-09-23T19:25:24.059Z,8.43
2018-09-23T19:27:52.301Z,7.77
2018-09-23T19:30:20.529Z,8.03
2018-09-23T19:32:48.727Z,6.10
2018-09-23T19:35:16.954Z,7.33
2018-09-23T19:37:45.200Z,5.67
2018-09-23T19:40:13.410Z,6.13
2018-09-23T19:42:41.669Z,6.70
2018-09-23T19:45:09.939Z,7.67
2018-09-23T19:47:38.165Z,7.50
2018-09-23T19:50:06.511Z,10.13
2018-09-23T19:52:34.779Z,6.47
2018-09-23T19:55:03.020Z,6.87
2018-09-23T19:57:31.231Z,5.97
2018-09-23T19:59:59.429Z,8.30
2018-09-23T20:02:27.654Z,4.87
2018-09-23T20:04:55.864Z,4.97
2018-09-23T20:07:24.469Z,5.43
2018-09-23T20:09:52.721Z,5.27
2018-09-23T20:12:20.969Z,6.83
2018-09-23T20:14:49.280Z,6.43
2018-09-23T20:17:17.555Z,5.80
2018-09-23T20:19:45.813Z,9.23
2018-09-23T20:22:14.020Z,7.23
2018-09-23T20:24:42.260Z,7.00
2018-09-23T20:27:10.462Z,5.93
2018-09-23T20:29:38.693Z,9.63
2018-09-23T20:32:06.957Z,8.90
2018-09-23T20:34:35.189Z,6.97
2018-09-23T20:37:04.160Z,9.10
2018-09-23T20:39:32.374Z,6.00
2018-09-23T20:42:00.737Z,5.80
2018-09-23T20:44:28.980Z,5.20
2018-09-23T20:46:57.199Z,6.17
2018-09-23T20:49:25.416Z,5.57
2018-09-23T20:51:53.602Z,5.10
2018-09-23T20:54:21.825Z,8.47
2018-09-23T20:56:50.083Z,5.03
2018-09-23T20:59:18.227Z,11.73
2018-09-23T21:01:46.500Z,5.40
2018-09-23T21:04:14.666Z,8.37
2018-09-23T21:06:42.946Z,4.60
2018-09-23T21:09:11.507Z,5.40
2018-09-23T21:11:39.908Z,4.83
2018-09-23T21:14:08.156Z,4.50
2018-09-23T21:16:36.418Z,5.10
2018-09-23T21:19:04.832Z,7.13
2018-09-23T21:21:33.081Z,8.03
2018-09-23T21:24:01.366Z,7.13
2018-09-23T21:26:29.593Z,6.20
2018-09-23T21:28:57.805Z,5.97
2018-09-23T21:31:26.022Z,6.33
2018-09-23T21:33:54.343Z,6.23
2018-09-23T21:36:22.559Z,6.17
2018-09-23T21:38:50.777Z,5.80
2018-09-23T21:41:19.199Z,6.77
2018-09-23T21:43:47.389Z,7.23
2018-09-23T21:46:15.577Z,5.43
2018-09-23T21:48:43.819Z,5.33
2018-09-23T21:51:12.042Z,6.70
2018-09-23T21:53:40.272Z,5.33
2018-09-23T21:56:08.515Z,8.10
2018-09-23T21:58:36.741Z,4.73
2018-09-23T22:01:04.938Z,6.87
2018-09-23T22:03:33.271Z,5.07
2018-09-23T22:06:01.445Z,5.57
2018-09-23T22:08:29.692Z,7.93
2018-09-23T22:10:57.941Z,7.47
2018-09-23T22:13:26.123Z,5.27
2018-09-23T22:15:54.384Z,8.60
2018-09-23T22:18:22.732Z,6.00
2018-09-23T22:20:50.926Z,5.70
2018-09-23T22:23:19.129Z,7.40
2018-09-23T22:25:47.538Z,8.73
2018-09-23T22:28:15.750Z,6.67
2018-09-23T22:30:43.956Z,5.10
2018-09-23T22:33:12.189Z,7.70
2018-09-23T22:35:40.398Z,6.90
2018-09-23T22:38:08.610Z,6.97
2018-09-23T22:40:36.822Z,7.40
2018-09-23T22:43:05.013Z,5.43
2018-09-23T22:45:33.220Z,5.60
2018-09-23T22:48:01.456Z,10.53
2018-09-23T22:50:29.667Z,10.53
2018-09-23T22:52:57.906Z,8.50
2018-09-23T22:55:26.152Z,8.13
2018-09-23T22:57:54.357Z,6.93
2018-09-23T23:00:22.602Z,7.33
2018-09-23T23:02:50.785Z,9.20
2018-09-23T23:05:18.976Z,7.30
2018-09-23T23:07:47.199Z,5.83
2018-09-23T23:10:15.429Z,6.83
2018-09-23T23:12:43.612Z,7.33
2018-09-23T23:15:11.863Z,10.50
2018-09-23T23:17:40.068Z,5.20
2018-09-23T23:20:08.277Z,7.27
2018-09-23T23:22:36.482Z,6.23
2018-09-23T23:25:04.680Z,6.67
2018-09-23T23:27:32.872Z,5.13
2018-09-23T23:30:01.102Z,8.10
2018-09-23T23:32:29.324Z,11.10
2018-09-23T23:34:57.588Z,8.40
2018-09-23T23:37:25.789Z,7.47
2018-09-23T23:39:54.030Z,8.60
2018-09-23T23:42:22.241Z,10.43
2018-09-23T23:44:50.489Z,7.40
2018-09-23T23:47:18.742Z,7.57
2018-09-23T23:49:46.904Z,8.03
2018-09-23T23:52:15.140Z,11.13
2018-09-23T23:54:44.330Z,9.13
2018-09-23T23:57:12.541Z,8.90
2018-09-23T23:59:40.737Z,8.50
